createdAt,value
2022-10-14T00:00:22.397Z,11.63
2022-10-14T00:02:48.911Z,11.63
2022-10-14T00:05:15.363Z,10.95
2022-10-14T00:07:41.663Z,11.02
2022-10-14T00:10:08.051Z,11.10
2022-10-14T00:12:34.596Z,10.70
2022-10-14T00:15:00.905Z,10.73
2022-10-14T00:17:27.187Z,10.80
2022-10-14T00:19:53.453Z,10.23
2022-10-14T00:22:19.920Z,9.65
2022-10-14T00:24:46.192Z,10.05
2022-10-14T00:27:12.431Z,10.50
2022-10-14T00:29:38.730Z,9.80
2022-10-14T00:32:05.136Z,9.57
2022-10-14T00:34:31.353Z,9.07
2022-10-14T00:36:57.846Z,9.25
2022-10-14T00:39:24.121Z,9.32
2022-10-14T00:41:50.385Z,9.60
2022-10-14T00:44:19.779Z,8.65
2022-10-14T00:46:47.279Z,9.23
2022-10-14T00:49:15.557Z,9.88
2022-10-14T00:51:43.975Z,8.32
2022-10-14T00:54:11.464Z,8.23
2022-10-14T00:56:37.789Z,8.35
2022-10-14T00:59:04.791Z,9.82
2022-10-14T01:01:31.246Z,9.25
2022-10-14T01:03:57.571Z,8.27
2022-10-14T01:06:32.059Z,7.95
2022-10-14T01:09:09.429Z,8.07
2022-10-14T01:12:16.155Z,8.88
2022-10-14T01:14:50.333Z,7.82
2022-10-14T01:17:30.287Z,7.72
2022-10-14T01:19:59.692Z,7.28
2022-10-14T01:22:36.856Z,8.00
2022-10-14T01:25:06.207Z,7.55
2022-10-14T01:27:51.323Z,9.23
2022-10-14T01:30:19.420Z,7.90
2022-10-14T01:32:48.982Z,7.57
2022-10-14T01:35:44.776Z,7.13
2022-10-14T01:38:17.171Z,7.40
2022-10-14T01:40:55.400Z,8.05
2022-10-14T01:43:23.293Z,6.95
2022-10-14T01:45:50.258Z,7.70
2022-10-14T01:48:18.000Z,8.00
2022-10-14T01:50:46.083Z,7.15
2022-10-14T01:53:16.838Z,6.93
2022-10-14T01:55:44.379Z,6.75
2022-10-14T01:58:12.143Z,7.65
2022-10-14T02:00:38.410Z,7.03
2022-10-14T02:03:04.676Z,6.70
2022-10-14T02:05:37.032Z,7.32
2022-10-14T02:08:21.757Z,7.18
2022-10-14T02:10:48.011Z,6.22
2022-10-14T02:13:20.492Z,5.93
2022-10-14T02:15:57.602Z,6.40
2022-10-14T02:18:26.611Z,6.10
2022-10-14T02:21:05.023Z,6.85
2022-10-14T02:23:34.012Z,5.78
2022-10-14T02:26:01.358Z,6.40
2022-10-14T02:28:29.040Z,5.47
2022-10-14T02:31:00.232Z,6.35
2022-10-14T02:33:28.583Z,6.00
2022-10-14T02:35:55.946Z,6.75
2022-10-14T02:38:22.372Z,5.97
2022-10-14T02:40:49.797Z,6.20
2022-10-14T02:43:16.629Z,6.13
2022-10-14T02:45:43.923Z,6.15
2022-10-14T02:48:11.518Z,5.95
2022-10-14T02:50:37.868Z,5.85
2022-10-14T02:53:04.161Z,5.68
2022-10-14T02:55:30.408Z,5.55
2022-10-14T02:57:56.649Z,5.95
2022-10-14T03:00:22.919Z,5.40
2022-10-14T03:02:49.147Z,5.82
2022-10-14T03:05:15.460Z,5.72
2022-10-14T03:07:41.699Z,5.05
2022-10-14T03:10:08.205Z,5.22
2022-10-14T03:12:34.435Z,5.30
2022-10-14T03:15:00.673Z,5.50
2022-10-14T03:17:26.952Z,6.07
2022-10-14T03:19:53.210Z,5.00
2022-10-14T03:22:19.828Z,4.97
2022-10-14T03:24:46.455Z,5.18
2022-10-14T03:27:12.700Z,4.97
2022-10-14T03:29:38.942Z,4.90
2022-10-14T03:32:05.246Z,5.15
2022-10-14T03:34:31.482Z,5.18
2022-10-14T03:36:57.742Z,4.85
2022-10-14T03:39:23.992Z,5.00
2022-10-14T03:41:50.306Z,4.30
2022-10-14T03:44:16.671Z,4.00
2022-10-14T03:46:42.908Z,5.03
2022-10-14T03:49:09.137Z,4.25
2022-10-14T03:51:35.514Z,4.40
2022-10-14T03:54:01.769Z,4.85
2022-10-14T03:56:28.046Z,4.05
2022-10-14T03:58:54.593Z,3.75
2022-10-14T04:01:20.973Z,4.05
2022-10-14T04:03:47.335Z,4.05
2022-10-14T04:06:16.556Z,4.13
2022-10-14T04:08:43.585Z,4.28
2022-10-14T04:11:10.366Z,4.15
2022-10-14T04:13:37.060Z,3.78
2022-10-14T04:16:07.153Z,4.40
2022-10-14T04:18:34.089Z,4.70
2022-10-14T04:21:01.508Z,3.97
2022-10-14T04:23:27.793Z,3.47
2022-10-14T04:25:54.058Z,3.83
2022-10-14T04:28:20.513Z,4.10
2022-10-14T04:30:46.820Z,3.67
2022-10-14T04:33:13.145Z,3.78
2022-10-14T04:35:39.408Z,3.53
2022-10-14T04:38:05.712Z,3.67
2022-10-14T04:40:32.234Z,3.95
2022-10-14T04:42:59.110Z,3.53
2022-10-14T04:45:25.795Z,4.10
2022-10-14T04:47:52.662Z,4.10
2022-10-14T04:50:19.797Z,3.65
2022-10-14T04:52:46.172Z,3.97
2022-10-14T04:55:12.416Z,4.43
2022-10-14T04:57:40.373Z,4.47
2022-10-14T05:00:07.166Z,3.92
2022-10-14T05:02:33.422Z,4.00
2022-10-14T05:04:59.647Z,4.65
2022-10-14T05:07:25.878Z,4.57
2022-10-14T05:09:56.184Z,4.50
2022-10-14T05:12:23.381Z,3.70
2022-10-14T05:14:49.893Z,3.80
2022-10-14T05:17:16.192Z,4.55
2022-10-14T05:19:42.446Z,4.05
2022-10-14T05:22:08.673Z,4.40
2022-10-14T05:24:34.953Z,4.47
2022-10-14T05:27:01.190Z,4.00
2022-10-14T05:29:27.424Z,3.90
2022-10-14T05:31:53.692Z,3.35
2022-10-14T05:34:19.992Z,3.60
2022-10-14T05:36:46.390Z,3.72
2022-10-14T05:39:12.805Z,3.53
2022-10-14T05:41:39.297Z,3.60
2022-10-14T05:44:05.660Z,3.63
2022-10-14T05:46:31.920Z,3.72
2022-10-14T05:49:00.193Z,3.45
2022-10-14T05:51:26.463Z,3.53
2022-10-14T05:53:53.155Z,3.40
2022-10-14T05:56:19.452Z,3.20
2022-10-14T05:58:45.790Z,3.30
2022-10-14T06:01:13.400Z,3.47
2022-10-14T06:03:39.655Z,3.28
2022-10-14T06:06:06.067Z,3.30
2022-10-14T06:08:32.333Z,3.75
2022-10-14T06:11:02.718Z,3.08
2022-10-14T06:13:29.011Z,4.07
2022-10-14T06:15:55.228Z,2.97
2022-10-14T06:18:21.578Z,2.83
2022-10-14T06:20:54.476Z,2.90
2022-10-14T06:23:20.914Z,2.67
2022-10-14T06:25:47.195Z,2.65
2022-10-14T06:28:13.437Z,2.95
2022-10-14T06:30:39.704Z,2.50
2022-10-14T06:33:05.948Z,2.70
2022-10-14T06:35:32.337Z,2.42
2022-10-14T06:37:59.086Z,2.50
2022-10-14T06:40:25.390Z,2.33
2022-10-14T06:42:53.501Z,2.70
2022-10-14T06:45:19.858Z,2.28
2022-10-14T06:47:46.164Z,2.38
2022-10-14T06:50:12.445Z,2.40
2022-10-14T06:52:38.698Z,2.33
2022-10-14T06:55:05.305Z,2.35
2022-10-14T06:57:31.568Z,2.50
2022-10-14T06:59:58.987Z,2.15
2022-10-14T07:02:25.864Z,2.10
2022-10-14T07:04:52.256Z,2.13
2022-10-14T07:07:18.548Z,2.17
2022-10-14T07:09:44.756Z,2.25
2022-10-14T07:12:10.963Z,2.08
2022-10-14T07:14:37.256Z,1.98
2022-10-14T07:17:03.865Z,1.92
2022-10-14T07:19:30.194Z,2.30
2022-10-14T07:21:56.437Z,2.03
2022-10-14T07:24:25.096Z,1.92
2022-10-14T07:26:51.365Z,2.10
2022-10-14T07:29:17.715Z,1.77
2022-10-14T07:31:43.954Z,1.80
2022-10-14T07:34:10.210Z,1.88
2022-10-14T07:36:36.529Z,1.63
2022-10-14T07:39:02.974Z,2.08
2022-10-14T07:41:29.276Z,1.58
2022-10-14T07:44:03.123Z,2.08
2022-10-14T07:46:32.245Z,1.80
2022-10-14T07:48:59.438Z,2.10
2022-10-14T07:51:26.411Z,2.28
2022-10-14T07:53:53.324Z,1.90
2022-10-14T07:56:20.065Z,1.60
2022-10-14T07:58:46.609Z,1.73
2022-10-14T08:01:15.264Z,1.65
2022-10-14T08:03:42.475Z,2.05
2022-10-14T08:06:09.258Z,1.77
2022-10-14T08:08:35.887Z,1.67
2022-10-14T08:11:08.013Z,1.80
2022-10-14T08:13:34.988Z,1.50
2022-10-14T08:16:01.676Z,1.40
2022-10-14T08:18:28.017Z,1.50
2022-10-14T08:20:54.405Z,1.83
2022-10-14T08:23:20.675Z,1.73
2022-10-14T08:25:47.947Z,1.60
2022-10-14T08:28:14.339Z,1.88
2022-10-14T08:30:40.921Z,2.00
2022-10-14T08:33:07.229Z,1.63
2022-10-14T08:35:33.712Z,1.80
2022-10-14T08:38:01.063Z,1.83
2022-10-14T08:40:33.461Z,1.90
2022-10-14T08:43:01.663Z,2.00
2022-10-14T08:45:37.395Z,2.17
2022-10-14T08:48:13.112Z,2.33
2022-10-14T08:51:03.324Z,1.50
2022-10-14T08:53:33.007Z,2.30
2022-10-14T08:56:00.850Z,2.10
2022-10-14T08:58:32.223Z,2.13
2022-10-14T09:00:59.848Z,2.10
2022-10-14T09:03:33.091Z,2.90
2022-10-14T09:06:01.257Z,2.75
2022-10-14T09:08:33.881Z,3.03
2022-10-14T09:11:00.162Z,3.00
2022-10-14T09:13:32.324Z,3.08
2022-10-14T09:16:02.732Z,2.40
2022-10-14T09:18:35.305Z,3.08
2022-10-14T09:21:02.636Z,2.40
2022-10-14T09:23:28.944Z,2.45
2022-10-14T09:25:59.631Z,2.10
2022-10-14T09:28:31.838Z,2.30
2022-10-14T09:30:58.184Z,2.08
2022-10-14T09:33:27.096Z,2.30
2022-10-14T09:35:53.401Z,2.10
2022-10-14T09:38:20.156Z,2.10
2022-10-14T09:40:51.364Z,2.30
2022-10-14T09:43:19.076Z,2.08
2022-10-14T09:45:48.385Z,2.10
2022-10-14T09:48:16.964Z,1.90
2022-10-14T09:50:48.316Z,2.00
2022-10-14T09:53:31.726Z,1.65
2022-10-14T09:56:02.797Z,1.80
2022-10-14T09:58:31.704Z,2.00
2022-10-14T10:00:59.207Z,2.00
2022-10-14T10:03:32.995Z,1.80
2022-10-14T10:06:01.312Z,1.80
2022-10-14T10:08:27.627Z,2.05
2022-10-14T10:11:03.523Z,2.70
2022-10-14T10:13:34.378Z,1.90
2022-10-14T10:16:02.925Z,2.33
2022-10-14T10:18:29.272Z,2.22
2022-10-14T10:21:15.382Z,1.88
2022-10-14T10:23:50.628Z,1.83
2022-10-14T10:26:18.532Z,2.17
2022-10-14T10:28:45.946Z,1.60
2022-10-14T10:31:26.190Z,1.77
2022-10-14T10:34:02.971Z,1.95
2022-10-14T10:36:31.411Z,1.85
2022-10-14T10:39:01.798Z,1.67
2022-10-14T10:41:51.305Z,1.77
2022-10-14T10:44:25.625Z,1.77
2022-10-14T10:47:12.602Z,2.10
2022-10-14T10:49:57.774Z,1.70
2022-10-14T10:52:24.499Z,2.00
2022-10-14T10:54:57.184Z,2.38
2022-10-14T10:57:24.903Z,1.70
2022-10-14T10:59:56.340Z,1.83
2022-10-14T11:02:44.151Z,2.30
2022-10-14T11:05:13.495Z,2.08
2022-10-14T11:08:17.724Z,2.13
2022-10-14T11:11:21.896Z,1.95
2022-10-14T11:13:55.532Z,2.00
2022-10-14T11:16:26.589Z,1.70
2022-10-14T11:18:52.838Z,1.98
2022-10-14T11:21:37.703Z,1.70
2022-10-14T11:24:20.527Z,1.85
2022-10-14T11:26:55.888Z,1.63
2022-10-14T11:29:35.416Z,1.63
2022-10-14T11:32:07.844Z,2.08
2022-10-14T11:34:48.701Z,1.92
2022-10-14T11:37:15.580Z,2.10
2022-10-14T11:39:53.776Z,1.92
2022-10-14T11:42:20.845Z,1.70
2022-10-14T11:44:51.156Z,1.73
2022-10-14T11:47:24.050Z,2.08
2022-10-14T11:49:55.658Z,2.28
2022-10-14T11:52:27.735Z,2.10
2022-10-14T11:54:56.500Z,1.90
2022-10-14T11:57:30.193Z,1.90
2022-10-14T12:00:00.062Z,2.13
2022-10-14T12:02:59.011Z,2.03
2022-10-14T12:05:37.166Z,1.90
2022-10-14T12:08:09.535Z,2.08
2022-10-14T12:10:38.513Z,1.98
2022-10-14T12:13:10.640Z,1.98
2022-10-14T12:15:38.754Z,2.00
2022-10-14T12:18:05.308Z,2.22
2022-10-14T12:20:37.690Z,2.40
2022-10-14T12:23:06.839Z,2.15
2022-10-14T12:25:41.438Z,1.80
2022-10-14T12:28:09.750Z,1.80
2022-10-14T12:30:36.037Z,2.00
2022-10-14T12:33:09.718Z,1.70
2022-10-14T12:35:47.095Z,2.13
2022-10-14T12:38:13.676Z,2.22
2022-10-14T12:40:40.418Z,1.75
2022-10-14T12:43:17.956Z,2.13
2022-10-14T12:45:56.189Z,1.88
2022-10-14T12:48:23.668Z,2.00
2022-10-14T12:50:57.952Z,1.90
2022-10-14T12:53:29.492Z,2.13
2022-10-14T12:56:00.506Z,1.95
2022-10-14T12:58:51.463Z,2.00
2022-10-14T13:01:18.931Z,1.80
2022-10-14T13:03:56.207Z,1.80
2022-10-14T13:06:27.251Z,1.70
2022-10-14T13:09:11.927Z,1.85
2022-10-14T13:11:58.451Z,2.05
2022-10-14T13:14:29.898Z,1.50
2022-10-14T13:16:59.987Z,1.80
2022-10-14T13:19:32.355Z,1.73
2022-10-14T13:21:59.566Z,1.63
2022-10-14T13:24:27.875Z,1.70
2022-10-14T13:26:54.110Z,1.73
2022-10-14T13:29:20.357Z,1.75
2022-10-14T13:32:07.283Z,1.48
2022-10-14T13:34:36.284Z,1.70
2022-10-14T13:37:11.601Z,1.70
2022-10-14T13:39:38.027Z,1.67
2022-10-14T13:42:04.435Z,1.45
2022-10-14T13:44:31.023Z,2.50
2022-10-14T13:46:57.382Z,1.88
2022-10-14T13:49:30.370Z,1.60
2022-10-14T13:51:59.428Z,1.60
2022-10-14T13:54:27.606Z,1.80
2022-10-14T14:02:38.390Z,1.83
2022-10-14T14:05:05.405Z,1.40
2022-10-14T14:08:08.095Z,1.50
2022-10-14T14:10:23.466Z,1.65
2022-10-14T14:12:50.673Z,1.60
2022-10-14T14:15:19.560Z,1.60
2022-10-14T14:17:45.849Z,1.80
2022-10-14T14:20:12.435Z,1.50
2022-10-14T14:22:42.514Z,2.10
2022-10-14T14:25:36.666Z,1.30
2022-10-14T14:28:06.559Z,1.40
2022-10-14T14:30:34.343Z,1.52
2022-10-14T14:33:02.470Z,1.27
2022-10-14T14:35:28.933Z,1.50
2022-10-14T14:37:56.505Z,1.70
2022-10-14T14:40:27.588Z,1.70
2022-10-14T14:42:56.131Z,1.50
2022-10-14T14:45:26.656Z,1.55
2022-10-14T14:47:57.743Z,1.33
2022-10-14T14:50:30.904Z,1.40
2022-10-14T14:53:00.723Z,1.50
2022-10-14T14:55:34.348Z,1.63
2022-10-14T14:58:02.365Z,1.40
2022-10-14T15:00:30.732Z,1.48
2022-10-14T15:03:01.462Z,1.40
2022-10-14T15:05:27.904Z,1.27
2022-10-14T15:07:54.305Z,2.45
2022-10-14T15:10:26.220Z,2.55
2022-10-14T15:12:54.069Z,2.10
2022-10-14T15:15:27.908Z,2.33
2022-10-14T15:18:15.025Z,2.35
2022-10-14T15:20:42.312Z,2.13
2022-10-14T15:23:27.545Z,1.95
2022-10-14T15:25:58.448Z,1.88
2022-10-14T15:28:32.338Z,1.65
2022-10-14T15:31:03.048Z,1.63
2022-10-14T15:33:31.896Z,1.90
2022-10-14T15:35:59.774Z,2.28
2022-10-14T15:38:26.655Z,1.70
2022-10-14T15:40:53.167Z,1.70
2022-10-14T15:43:23.884Z,1.50
2022-10-14T15:46:17.073Z,1.65
2022-10-14T15:48:47.616Z,1.60
2022-10-14T15:51:15.702Z,1.40
2022-10-14T15:53:42.295Z,1.75
2022-10-14T15:56:10.250Z,1.88
2022-10-14T15:58:36.836Z,1.88
2022-10-14T16:01:04.209Z,2.10
2022-10-14T16:03:34.574Z,2.08
2022-10-14T16:08:29.141Z,2.10
2022-10-14T16:10:55.553Z,2.00
2022-10-14T16:13:22.375Z,2.10
2022-10-14T16:15:56.223Z,1.90
2022-10-14T16:21:13.884Z,1.85
2022-10-14T16:23:40.155Z,2.10
2022-10-14T16:26:06.554Z,2.42
2022-10-14T16:28:32.881Z,2.20
2022-10-14T16:30:59.254Z,2.47
2022-10-14T16:33:25.632Z,3.15
2022-10-14T16:35:53.222Z,2.70
2022-10-14T16:38:20.018Z,2.90
2022-10-14T16:40:53.640Z,2.58
2022-10-14T16:43:19.951Z,2.75
2022-10-14T16:45:46.223Z,2.60
2022-10-14T16:48:12.558Z,3.08
2022-10-14T16:50:38.825Z,2.70
2022-10-14T16:53:23.813Z,2.97
2022-10-14T16:55:50.088Z,3.70
2022-10-14T16:58:16.386Z,3.40
2022-10-14T17:00:42.630Z,3.75
2022-10-14T17:03:09.140Z,3.38
2022-10-14T17:05:35.423Z,4.28
2022-10-14T17:08:02.077Z,3.25
2022-10-14T17:10:28.366Z,3.28
2022-10-14T17:12:55.337Z,3.25
2022-10-14T17:15:22.449Z,3.30
2022-10-14T17:17:48.721Z,3.53
2022-10-14T17:20:15.223Z,3.60
2022-10-14T17:22:43.034Z,3.40
2022-10-14T17:25:12.202Z,3.53
2022-10-14T17:27:38.506Z,3.72
2022-10-14T17:30:05.096Z,3.67
2022-10-14T17:32:31.355Z,4.00
2022-10-14T17:34:57.633Z,4.10
2022-10-14T17:37:23.855Z,4.43
2022-10-14T17:39:50.188Z,4.72
2022-10-14T17:42:16.431Z,4.15
2022-10-14T17:44:43.952Z,3.95
2022-10-14T17:47:10.423Z,4.40
2022-10-14T17:49:37.326Z,4.50
2022-10-14T17:52:04.475Z,4.22
2022-10-14T17:54:30.775Z,5.07
2022-10-14T17:56:57.026Z,4.43
2022-10-14T17:59:23.772Z,4.15
2022-10-14T18:02:05.509Z,4.70
2022-10-14T18:04:33.020Z,4.47
2022-10-14T18:06:59.558Z,4.85
2022-10-14T18:09:25.844Z,5.10
2022-10-14T18:12:09.283Z,4.47
2022-10-14T18:14:36.351Z,4.10
2022-10-14T18:17:02.810Z,4.20
2022-10-14T18:19:29.121Z,4.75
2022-10-14T18:21:55.574Z,4.30
2022-10-14T18:24:22.232Z,4.13
2022-10-14T18:26:51.885Z,4.13
2022-10-14T18:29:18.177Z,4.30
2022-10-14T18:31:44.565Z,4.47
2022-10-14T18:34:11.569Z,4.50
2022-10-14T18:36:38.092Z,4.22
2022-10-14T18:39:06.643Z,4.07
2022-10-14T18:41:33.326Z,4.82
2022-10-14T18:44:00.887Z,4.13
2022-10-14T18:46:28.732Z,4.43
2022-10-14T18:48:56.436Z,3.97
2022-10-14T18:51:25.711Z,4.15
2022-10-14T18:53:53.302Z,4.13
2022-10-14T18:56:20.760Z,4.30
2022-10-14T18:58:48.398Z,4.10
2022-10-14T19:01:15.636Z,4.38
2022-10-14T19:03:42.855Z,4.35
2022-10-14T19:06:09.939Z,4.30
2022-10-14T19:08:37.454Z,4.18
2022-10-14T19:11:05.166Z,3.97
2022-10-14T19:13:31.632Z,4.75
2022-10-14T19:16:02.210Z,3.83
2022-10-14T19:18:28.754Z,3.70
2022-10-14T19:20:57.624Z,4.00
2022-10-14T19:23:24.744Z,4.22
2022-10-14T19:25:50.970Z,4.20
2022-10-14T19:28:18.162Z,4.07
2022-10-14T19:30:44.460Z,4.47
2022-10-14T19:33:10.777Z,4.30
2022-10-14T19:35:37.055Z,4.00
2022-10-14T19:38:03.347Z,4.10
2022-10-14T19:40:29.687Z,3.72
2022-10-14T19:42:55.958Z,3.97
2022-10-14T19:45:22.171Z,4.57
2022-10-14T19:47:48.433Z,3.88
2022-10-14T19:50:14.710Z,4.35
2022-10-14T19:52:40.937Z,4.28
2022-10-14T19:55:07.510Z,4.13
2022-10-14T19:57:33.820Z,3.97
2022-10-14T20:00:00.146Z,4.25
2022-10-14T20:02:26.592Z,4.00
2022-10-14T20:04:52.863Z,4.40
2022-10-14T20:07:19.149Z,3.97
2022-10-14T20:09:45.633Z,4.18
2022-10-14T20:12:11.871Z,3.78
2022-10-14T20:14:38.141Z,3.88
2022-10-14T20:17:04.676Z,4.07
2022-10-14T20:19:31.019Z,4.60
2022-10-14T20:21:57.369Z,4.15
2022-10-14T20:24:23.616Z,4.20
2022-10-14T20:26:49.925Z,4.20
2022-10-14T20:29:16.308Z,3.90
2022-10-14T20:31:42.529Z,4.55
2022-10-14T20:34:10.381Z,3.60
2022-10-14T20:36:37.578Z,3.80
2022-10-14T20:39:03.820Z,4.65
2022-10-14T20:41:30.063Z,3.80
2022-10-14T20:43:57.173Z,3.55
2022-10-14T20:46:24.742Z,3.72
2022-10-14T20:48:55.050Z,3.70
2022-10-14T20:51:22.591Z,3.60
2022-10-14T20:53:48.818Z,3.42
2022-10-14T20:56:15.122Z,3.70
2022-10-14T20:58:41.955Z,3.47
2022-10-14T21:01:09.608Z,3.60
2022-10-14T21:03:35.941Z,3.83
2022-10-14T21:06:06.353Z,4.40
2022-10-14T21:08:32.713Z,4.22
2022-10-14T21:11:02.434Z,3.60
2022-10-14T21:13:29.220Z,3.80
2022-10-14T21:15:55.823Z,4.47
2022-10-14T21:18:22.918Z,3.85
2022-10-14T21:20:49.471Z,3.67
2022-10-14T21:23:15.973Z,4.55
2022-10-14T21:25:42.391Z,4.03
2022-10-14T21:28:08.660Z,3.50
2022-10-14T21:30:34.934Z,3.75
2022-10-14T21:33:01.180Z,4.05
2022-10-14T21:35:27.466Z,3.78
2022-10-14T21:37:53.714Z,4.43
2022-10-14T21:40:19.981Z,3.90
2022-10-14T21:42:46.338Z,4.30
2022-10-14T21:45:12.572Z,4.20
2022-10-14T21:47:38.858Z,3.90
2022-10-14T21:50:05.264Z,4.28
2022-10-14T21:52:31.488Z,3.80
2022-10-14T21:54:57.984Z,3.72
2022-10-14T21:57:24.637Z,4.00
2022-10-14T21:59:51.318Z,3.75
2022-10-14T22:02:17.593Z,4.25
2022-10-14T22:04:43.837Z,4.15
2022-10-14T22:07:10.555Z,3.55
2022-10-14T22:09:37.060Z,4.15
2022-10-14T22:12:03.592Z,3.85
2022-10-14T22:14:29.849Z,4.22
2022-10-14T22:16:56.108Z,3.78
2022-10-14T22:19:22.579Z,4.72
2022-10-14T22:21:49.759Z,3.83
2022-10-14T22:24:16.006Z,4.45
2022-10-14T22:26:42.398Z,4.25
2022-10-14T22:29:13.616Z,3.92
2022-10-14T22:31:39.899Z,3.85
2022-10-14T22:34:06.834Z,3.88
2022-10-14T22:36:33.730Z,3.88
2022-10-14T22:39:01.139Z,4.10
2022-10-14T22:41:32.383Z,3.80
2022-10-14T22:44:01.809Z,4.05
2022-10-14T22:46:29.402Z,4.22
2022-10-14T22:48:56.877Z,3.63
2022-10-14T22:51:24.640Z,4.20
2022-10-14T22:53:51.202Z,4.20
2022-10-14T22:56:18.913Z,4.20
2022-10-14T22:58:45.211Z,3.92
2022-10-14T23:01:13.416Z,4.30
2022-10-14T23:03:40.245Z,4.25
2022-10-14T23:06:07.523Z,4.18
2022-10-14T23:08:34.275Z,4.05
2022-10-14T23:11:01.228Z,4.20
2022-10-14T23:13:27.690Z,3.90
2022-10-14T23:16:05.340Z,4.30
2022-10-14T23:18:33.018Z,3.85
2022-10-14T23:20:59.401Z,3.67
2022-10-14T23:23:25.685Z,3.78
2022-10-14T23:25:52.216Z,3.58
2022-10-14T23:28:18.738Z,3.53
2022-10-14T23:30:45.074Z,3.30
2022-10-14T23:33:11.797Z,3.05
2022-10-14T23:35:38.811Z,3.50
2022-10-14T23:38:05.160Z,3.00
2022-10-14T23:40:31.516Z,3.20
2022-10-14T23:42:57.829Z,3.40
2022-10-14T23:45:24.060Z,3.97
2022-10-14T23:47:50.322Z,4.28
2022-10-14T23:50:16.555Z,4.20
2022-10-14T23:52:42.797Z,4.00
2022-10-14T23:55:09.271Z,3.58
2022-10-14T23:57:35.507Z,3.97
